KINT

Smith Reynolds Airport

Winston Salem, North Carolina, USA
METAR KINT 162354Z 22005KT 10SM CLR 06/M06 A3021 RMK AO2 SLP237 T00611056 10089 20061 51010
Observed Flight Rules
Dec-16 @ 23:54 UTC (32 minutes ago) Visual Flight Rules
Wind Visibility Clouds
220° at 5 knots 10 miles
  • Clear skies
Temperatures Readings
Current 6°C / 43°F
Dewpoint -6°C / 21°F
Humidity 42%
Altimeter 30.21" Hg
Pressure 1023.7 hPa
Elevation 291
METAR KINT 162354Z 22005KT 10SM CLR 06/M06 A3021 RMK AO2 SLP237 T00611056 10089 20061 51010
Observed Flight Rules
Dec-16 @ 23:54 UTC
(32 minutes ago)
VFR
Wind Visibility
220° at 5 knots 10 miles
Clouds
  • Clear skies
Temperature Dewpoint
6°C / 43°F -6°C / 21°F
Humidity Altimeter Pressure
42% 30.21" Hg 1023.7 hPa